sensor_id;sensor_type;location;lat;lon;timestamp;P1;durP1;ratioP1;P2;durP2;ratioP2
4311;SDS011;2169;49.086;9.284;2023-06-19T00:00:52;5.40;;;5.00;;
4311;SDS011;2169;49.086;9.284;2023-06-19T00:03:19;4.97;;;4.57;;
4311;SDS011;2169;49.086;9.284;2023-06-19T00:05:47;5.70;;;4.50;;
4311;SDS011;2169;49.086;9.284;2023-06-19T00:08:16;6.00;;;4.77;;
4311;SDS011;2169;49.086;9.284;2023-06-19T00:10:43;9.20;;;5.37;;
4311;SDS011;2169;49.086;9.284;2023-06-19T00:13:10;7.27;;;5.10;;
4311;SDS011;2169;49.086;9.284;2023-06-19T00:15:37;5.27;;;4.27;;
4311;SDS011;2169;49.086;9.284;2023-06-19T00:18:04;3.83;;;3.53;;
4311;SDS011;2169;49.086;9.284;2023-06-19T00:20:32;6.30;;;5.70;;
4311;SDS011;2169;49.086;9.284;2023-06-19T00:22:59;7.23;;;5.90;;
4311;SDS011;2169;49.086;9.284;2023-06-19T00:25:28;4.90;;;4.47;;
4311;SDS011;2169;49.086;9.284;2023-06-19T00:27:55;8.10;;;6.13;;
4311;SDS011;2169;49.086;9.284;2023-06-19T00:30:22;7.60;;;5.27;;
4311;SDS011;2169;49.086;9.284;2023-06-19T00:32:49;5.17;;;4.70;;
4311;SDS011;2169;49.086;9.284;2023-06-19T00:35:18;9.63;;;4.40;;
4311;SDS011;2169;49.086;9.284;2023-06-19T00:37:47;5.47;;;4.37;;
4311;SDS011;2169;49.086;9.284;2023-06-19T00:40:16;5.53;;;5.00;;
4311;SDS011;2169;49.086;9.284;2023-06-19T00:42:53;5.83;;;5.33;;
4311;SDS011;2169;49.086;9.284;2023-06-19T00:45:20;7.13;;;5.40;;
4311;SDS011;2169;49.086;9.284;2023-06-19T00:47:48;6.20;;;5.60;;
4311;SDS011;2169;49.086;9.284;2023-06-19T00:50:16;12.63;;;4.73;;
4311;SDS011;2169;49.086;9.284;2023-06-19T00:52:43;5.30;;;4.80;;
4311;SDS011;2169;49.086;9.284;2023-06-19T00:55:10;9.20;;;6.73;;
4311;SDS011;2169;49.086;9.284;2023-06-19T00:57:38;5.90;;;5.40;;
4311;SDS011;2169;49.086;9.284;2023-06-19T01:00:09;7.03;;;6.37;;
4311;SDS011;2169;49.086;9.284;2023-06-19T01:02:38;7.30;;;6.20;;
4311;SDS011;2169;49.086;9.284;2023-06-19T01:05:05;12.03;;;5.73;;
4311;SDS011;2169;49.086;9.284;2023-06-19T01:07:33;7.30;;;6.03;;
4311;SDS011;2169;49.086;9.284;2023-06-19T01:10:09;9.70;;;6.43;;
4311;SDS011;2169;49.086;9.284;2023-06-19T01:12:39;6.27;;;5.57;;
4311;SDS011;2169;49.086;9.284;2023-06-19T01:15:17;6.87;;;5.37;;
4311;SDS011;2169;49.086;9.284;2023-06-19T01:17:45;6.03;;;4.67;;
4311;SDS011;2169;49.086;9.284;2023-06-19T01:20:12;8.00;;;6.43;;
4311;SDS011;2169;49.086;9.284;2023-06-19T01:22:42;6.27;;;5.50;;
4311;SDS011;2169;49.086;9.284;2023-06-19T01:25:10;10.60;;;6.10;;
4311;SDS011;2169;49.086;9.284;2023-06-19T01:27:38;8.90;;;5.97;;
4311;SDS011;2169;49.086;9.284;2023-06-19T01:30:07;6.33;;;5.83;;
4311;SDS011;2169;49.086;9.284;2023-06-19T01:32:38;12.60;;;5.70;;
4311;SDS011;2169;49.086;9.284;2023-06-19T01:35:11;9.00;;;5.50;;
4311;SDS011;2169;49.086;9.284;2023-06-19T01:37:40;7.27;;;5.67;;
4311;SDS011;2169;49.086;9.284;2023-06-19T01:40:12;5.03;;;4.50;;
4311;SDS011;2169;49.086;9.284;2023-06-19T01:42:40;4.47;;;3.97;;
4311;SDS011;2169;49.086;9.284;2023-06-19T01:45:08;6.50;;;4.47;;
4311;SDS011;2169;49.086;9.284;2023-06-19T01:47:36;5.40;;;4.90;;
4311;SDS011;2169;49.086;9.284;2023-06-19T01:50:03;5.33;;;4.17;;
4311;SDS011;2169;49.086;9.284;2023-06-19T01:52:31;4.77;;;3.90;;
4311;SDS011;2169;49.086;9.284;2023-06-19T01:54:58;5.17;;;4.67;;
4311;SDS011;2169;49.086;9.284;2023-06-19T01:57:27;4.97;;;3.93;;
4311;SDS011;2169;49.086;9.284;2023-06-19T02:00:07;4.03;;;3.73;;
4311;SDS011;2169;49.086;9.284;2023-06-19T02:02:37;3.60;;;3.40;;
4311;SDS011;2169;49.086;9.284;2023-06-19T02:05:04;7.93;;;3.13;;
4311;SDS011;2169;49.086;9.284;2023-06-19T02:07:32;3.43;;;2.87;;
4311;SDS011;2169;49.086;9.284;2023-06-19T02:09:59;3.40;;;2.40;;
4311;SDS011;2169;49.086;9.284;2023-06-19T02:12:28;1.97;;;1.87;;
4311;SDS011;2169;49.086;9.284;2023-06-19T02:14:56;1.80;;;1.70;;
4311;SDS011;2169;49.086;9.284;2023-06-19T02:17:22;2.47;;;2.07;;
4311;SDS011;2169;49.086;9.284;2023-06-19T02:19:49;1.87;;;1.77;;
4311;SDS011;2169;49.086;9.284;2023-06-19T02:22:17;3.87;;;1.20;;
4311;SDS011;2169;49.086;9.284;2023-06-19T02:24:44;6.23;;;1.57;;
4311;SDS011;2169;49.086;9.284;2023-06-19T02:27:11;2.90;;;1.97;;
4311;SDS011;2169;49.086;9.284;2023-06-19T02:29:39;1.50;;;1.40;;
4311;SDS011;2169;49.086;9.284;2023-06-19T02:32:06;2.70;;;1.87;;
4311;SDS011;2169;49.086;9.284;2023-06-19T02:34:34;3.50;;;1.30;;
4311;SDS011;2169;49.086;9.284;2023-06-19T02:37:01;1.90;;;1.80;;
4311;SDS011;2169;49.086;9.284;2023-06-19T02:39:29;1.73;;;1.50;;
4311;SDS011;2169;49.086;9.284;2023-06-19T02:41:56;1.60;;;1.50;;
4311;SDS011;2169;49.086;9.284;2023-06-19T02:44:22;1.97;;;1.60;;
4311;SDS011;2169;49.086;9.284;2023-06-19T02:46:51;3.73;;;2.13;;
4311;SDS011;2169;49.086;9.284;2023-06-19T02:49:18;1.80;;;1.70;;
4311;SDS011;2169;49.086;9.284;2023-06-19T02:51:47;1.40;;;1.30;;
4311;SDS011;2169;49.086;9.284;2023-06-19T02:54:14;1.27;;;1.17;;
4311;SDS011;2169;49.086;9.284;2023-06-19T02:56:42;1.60;;;1.50;;
4311;SDS011;2169;49.086;9.284;2023-06-19T02:59:09;2.70;;;1.50;;
4311;SDS011;2169;49.086;9.284;2023-06-19T03:01:35;1.47;;;1.37;;
4311;SDS011;2169;49.086;9.284;2023-06-19T03:04:15;1.40;;;1.30;;
4311;SDS011;2169;49.086;9.284;2023-06-19T03:06:42;5.20;;;1.73;;
4311;SDS011;2169;49.086;9.284;2023-06-19T03:09:09;1.73;;;1.20;;
4311;SDS011;2169;49.086;9.284;2023-06-19T03:11:38;1.23;;;1.20;;
4311;SDS011;2169;49.086;9.284;2023-06-19T03:14:05;8.60;;;1.07;;
4311;SDS011;2169;49.086;9.284;2023-06-19T03:16:33;1.37;;;1.27;;
4311;SDS011;2169;49.086;9.284;2023-06-19T03:19:01;2.00;;;1.70;;
4311;SDS011;2169;49.086;9.284;2023-06-19T03:21:29;1.53;;;1.43;;
4311;SDS011;2169;49.086;9.284;2023-06-19T03:23:56;1.87;;;1.77;;
4311;SDS011;2169;49.086;9.284;2023-06-19T03:26:23;3.07;;;2.37;;
4311;SDS011;2169;49.086;9.284;2023-06-19T03:28:50;2.20;;;2.00;;
4311;SDS011;2169;49.086;9.284;2023-06-19T03:31:18;3.83;;;2.73;;
4311;SDS011;2169;49.086;9.284;2023-06-19T03:33:57;2.87;;;1.70;;
4311;SDS011;2169;49.086;9.284;2023-06-19T03:36:24;2.77;;;2.60;;
4311;SDS011;2169;49.086;9.284;2023-06-19T03:38:53;2.50;;;2.10;;
4311;SDS011;2169;49.086;9.284;2023-06-19T03:41:20;3.27;;;2.37;;
4311;SDS011;2169;49.086;9.284;2023-06-19T03:43:47;1.20;;;1.10;;
4311;SDS011;2169;49.086;9.284;2023-06-19T03:46:14;2.47;;;2.27;;
4311;SDS011;2169;49.086;9.284;2023-06-19T03:48:43;1.43;;;1.33;;
4311;SDS011;2169;49.086;9.284;2023-06-19T03:51:10;2.00;;;1.90;;
4311;SDS011;2169;49.086;9.284;2023-06-19T03:53:37;1.67;;;1.57;;
4311;SDS011;2169;49.086;9.284;2023-06-19T03:56:05;16.03;;;2.27;;
4311;SDS011;2169;49.086;9.284;2023-06-19T03:58:32;2.80;;;1.60;;
4311;SDS011;2169;49.086;9.284;2023-06-19T04:00:59;1.63;;;1.53;;
4311;SDS011;2169;49.086;9.284;2023-06-19T04:03:27;1.83;;;1.47;;
4311;SDS011;2169;49.086;9.284;2023-06-19T04:05:54;3.17;;;1.67;;
4311;SDS011;2169;49.086;9.284;2023-06-19T04:08:21;2.00;;;1.83;;
4311;SDS011;2169;49.086;9.284;2023-06-19T04:10:47;9.50;;;1.70;;
4311;SDS011;2169;49.086;9.284;2023-06-19T04:13:16;2.30;;;2.20;;
4311;SDS011;2169;49.086;9.284;2023-06-19T04:15:43;1.60;;;1.50;;
4311;SDS011;2169;49.086;9.284;2023-06-19T04:18:10;3.10;;;2.00;;
4311;SDS011;2169;49.086;9.284;2023-06-19T04:20:37;1.53;;;1.43;;
4311;SDS011;2169;49.086;9.284;2023-06-19T04:23:05;1.90;;;1.80;;
4311;SDS011;2169;49.086;9.284;2023-06-19T04:25:32;2.07;;;1.97;;
4311;SDS011;2169;49.086;9.284;2023-06-19T04:27:59;3.53;;;1.53;;
4311;SDS011;2169;49.086;9.284;2023-06-19T04:30:30;2.37;;;1.60;;
4311;SDS011;2169;49.086;9.284;2023-06-19T04:32:57;2.50;;;2.27;;
4311;SDS011;2169;49.086;9.284;2023-06-19T04:35:24;2.63;;;2.43;;
4311;SDS011;2169;49.086;9.284;2023-06-19T04:37:51;2.87;;;2.27;;
4311;SDS011;2169;49.086;9.284;2023-06-19T04:40:19;16.67;;;2.70;;
4311;SDS011;2169;49.086;9.284;2023-06-19T04:42:46;2.30;;;1.83;;
4311;SDS011;2169;49.086;9.284;2023-06-19T04:45:13;2.07;;;1.50;;
4311;SDS011;2169;49.086;9.284;2023-06-19T04:47:42;1.97;;;1.83;;
4311;SDS011;2169;49.086;9.284;2023-06-19T04:50:09;1.70;;;1.60;;
4311;SDS011;2169;49.086;9.284;2023-06-19T04:52:36;1.10;;;1.10;;
4311;SDS011;2169;49.086;9.284;2023-06-19T04:55:04;2.90;;;2.00;;
4311;SDS011;2169;49.086;9.284;2023-06-19T04:57:34;4.30;;;1.90;;
4311;SDS011;2169;49.086;9.284;2023-06-19T05:00:02;3.13;;;1.83;;
4311;SDS011;2169;49.086;9.284;2023-06-19T05:02:32;2.07;;;1.97;;
4311;SDS011;2169;49.086;9.284;2023-06-19T05:05:00;6.00;;;1.70;;
4311;SDS011;2169;49.086;9.284;2023-06-19T05:07:28;2.73;;;1.80;;
4311;SDS011;2169;49.086;9.284;2023-06-19T05:09:58;4.13;;;1.80;;
4311;SDS011;2169;49.086;9.284;2023-06-19T05:12:25;2.60;;;2.30;;
4311;SDS011;2169;49.086;9.284;2023-06-19T05:14:52;3.07;;;2.00;;
4311;SDS011;2169;49.086;9.284;2023-06-19T05:17:20;1.20;;;1.20;;
4311;SDS011;2169;49.086;9.284;2023-06-19T05:19:47;1.87;;;1.73;;
4311;SDS011;2169;49.086;9.284;2023-06-19T05:22:17;2.63;;;1.43;;
4311;SDS011;2169;49.086;9.284;2023-06-19T05:24:46;7.80;;;1.70;;
4311;SDS011;2169;49.086;9.284;2023-06-19T05:27:13;1.33;;;1.23;;
4311;SDS011;2169;49.086;9.284;2023-06-19T05:29:40;3.53;;;2.17;;
4311;SDS011;2169;49.086;9.284;2023-06-19T05:32:10;2.30;;;1.73;;
4311;SDS011;2169;49.086;9.284;2023-06-19T05:34:40;1.63;;;1.53;;
4311;SDS011;2169;49.086;9.284;2023-06-19T05:37:07;1.57;;;1.47;;
4311;SDS011;2169;49.086;9.284;2023-06-19T05:39:36;1.10;;;1.10;;
4311;SDS011;2169;49.086;9.284;2023-06-19T05:42:04;2.63;;;2.33;;
4311;SDS011;2169;49.086;9.284;2023-06-19T05:44:32;1.53;;;1.43;;
4311;SDS011;2169;49.086;9.284;2023-06-19T05:46:58;1.87;;;1.70;;
4311;SDS011;2169;49.086;9.284;2023-06-19T05:49:25;1.50;;;1.17;;
4311;SDS011;2169;49.086;9.284;2023-06-19T05:51:55;0.97;;;0.97;;
4311;SDS011;2169;49.086;9.284;2023-06-19T05:54:24;1.10;;;1.10;;
4311;SDS011;2169;49.086;9.284;2023-06-19T05:56:52;2.30;;;1.30;;
4311;SDS011;2169;49.086;9.284;2023-06-19T05:59:19;1.67;;;1.57;;
4311;SDS011;2169;49.086;9.284;2023-06-19T06:01:47;1.40;;;1.30;;
4311;SDS011;2169;49.086;9.284;2023-06-19T06:04:15;1.20;;;1.10;;
4311;SDS011;2169;49.086;9.284;2023-06-19T06:06:42;1.23;;;1.13;;
4311;SDS011;2169;49.086;9.284;2023-06-19T06:09:09;1.47;;;1.10;;
4311;SDS011;2169;49.086;9.284;2023-06-19T06:11:37;1.83;;;1.60;;
4311;SDS011;2169;49.086;9.284;2023-06-19T06:14:05;3.23;;;1.37;;
4311;SDS011;2169;49.086;9.284;2023-06-19T06:16:33;1.67;;;1.57;;
4311;SDS011;2169;49.086;9.284;2023-06-19T06:19:00;3.33;;;1.60;;
4311;SDS011;2169;49.086;9.284;2023-06-19T06:21:27;1.33;;;1.23;;
4311;SDS011;2169;49.086;9.284;2023-06-19T06:23:54;1.90;;;1.80;;
4311;SDS011;2169;49.086;9.284;2023-06-19T06:26:21;3.17;;;1.43;;
4311;SDS011;2169;49.086;9.284;2023-06-19T06:28:48;7.47;;;1.70;;
4311;SDS011;2169;49.086;9.284;2023-06-19T06:31:17;1.80;;;1.40;;
4311;SDS011;2169;49.086;9.284;2023-06-19T06:33:44;3.30;;;2.03;;
4311;SDS011;2169;49.086;9.284;2023-06-19T06:36:11;3.67;;;2.20;;
4311;SDS011;2169;49.086;9.284;2023-06-19T06:38:43;1.57;;;1.27;;
4311;SDS011;2169;49.086;9.284;2023-06-19T06:41:14;1.50;;;1.40;;
4311;SDS011;2169;49.086;9.284;2023-06-19T06:43:42;1.77;;;1.67;;
4311;SDS011;2169;49.086;9.284;2023-06-19T06:46:09;2.03;;;1.67;;
4311;SDS011;2169;49.086;9.284;2023-06-19T06:48:37;5.07;;;1.57;;
4311;SDS011;2169;49.086;9.284;2023-06-19T06:51:04;2.63;;;1.30;;
4311;SDS011;2169;49.086;9.284;2023-06-19T06:53:31;1.23;;;1.13;;
4311;SDS011;2169;49.086;9.284;2023-06-19T06:55:58;1.73;;;1.63;;
4311;SDS011;2169;49.086;9.284;2023-06-19T06:58:25;2.00;;;1.90;;
4311;SDS011;2169;49.086;9.284;2023-06-19T07:00:53;1.40;;;1.30;;
4311;SDS011;2169;49.086;9.284;2023-06-19T07:03:20;2.80;;;1.70;;
4311;SDS011;2169;49.086;9.284;2023-06-19T07:05:48;1.90;;;1.80;;
4311;SDS011;2169;49.086;9.284;2023-06-19T07:08:15;1.87;;;1.77;;
4311;SDS011;2169;49.086;9.284;2023-06-19T07:10:42;4.77;;;1.90;;
4311;SDS011;2169;49.086;9.284;2023-06-19T07:13:09;3.90;;;2.23;;
4311;SDS011;2169;49.086;9.284;2023-06-19T07:15:36;3.07;;;1.43;;
4311;SDS011;2169;49.086;9.284;2023-06-19T07:18:03;5.03;;;1.93;;
4311;SDS011;2169;49.086;9.284;2023-06-19T07:20:30;2.90;;;2.03;;
4311;SDS011;2169;49.086;9.284;2023-06-19T07:22:58;2.57;;;2.43;;
4311;SDS011;2169;49.086;9.284;2023-06-19T07:25:26;0.97;;;0.97;;
4311;SDS011;2169;49.086;9.284;2023-06-19T07:27:53;1.93;;;1.83;;
4311;SDS011;2169;49.086;9.284;2023-06-19T07:30:20;1.03;;;0.90;;
4311;SDS011;2169;49.086;9.284;2023-06-19T07:32:47;1.20;;;1.10;;
4311;SDS011;2169;49.086;9.284;2023-06-19T07:35:14;1.10;;;1.00;;
4311;SDS011;2169;49.086;9.284;2023-06-19T07:37:41;1.60;;;1.50;;
4311;SDS011;2169;49.086;9.284;2023-06-19T07:40:10;3.80;;;1.10;;
4311;SDS011;2169;49.086;9.284;2023-06-19T07:42:38;1.47;;;1.37;;
4311;SDS011;2169;49.086;9.284;2023-06-19T07:45:05;1.73;;;1.37;;
4311;SDS011;2169;49.086;9.284;2023-06-19T07:47:33;8.33;;;1.70;;
4311;SDS011;2169;49.086;9.284;2023-06-19T07:49:59;1.40;;;1.30;;
4311;SDS011;2169;49.086;9.284;2023-06-19T07:52:28;1.70;;;1.37;;
4311;SDS011;2169;49.086;9.284;2023-06-19T07:54:55;1.03;;;1.03;;
4311;SDS011;2169;49.086;9.284;2023-06-19T07:57:26;1.60;;;1.47;;
4311;SDS011;2169;49.086;9.284;2023-06-19T08:00:01;2.23;;;2.03;;
4311;SDS011;2169;49.086;9.284;2023-06-19T08:02:32;1.10;;;1.00;;
4311;SDS011;2169;49.086;9.284;2023-06-19T08:04:59;2.73;;;1.60;;
4311;SDS011;2169;49.086;9.284;2023-06-19T08:07:25;1.40;;;1.30;;
4311;SDS011;2169;49.086;9.284;2023-06-19T08:09:52;9.30;;;1.33;;
4311;SDS011;2169;49.086;9.284;2023-06-19T08:12:19;2.50;;;2.10;;
4311;SDS011;2169;49.086;9.284;2023-06-19T08:14:45;1.50;;;1.40;;
4311;SDS011;2169;49.086;9.284;2023-06-19T08:17:13;2.27;;;2.07;;
4311;SDS011;2169;49.086;9.284;2023-06-19T08:19:40;2.57;;;1.40;;
4311;SDS011;2169;49.086;9.284;2023-06-19T08:22:07;1.73;;;1.63;;
4311;SDS011;2169;49.086;9.284;2023-06-19T08:24:34;3.37;;;2.77;;
4311;SDS011;2169;49.086;9.284;2023-06-19T08:27:04;2.30;;;1.40;;
4311;SDS011;2169;49.086;9.284;2023-06-19T08:29:31;1.87;;;1.43;;
4311;SDS011;2169;49.086;9.284;2023-06-19T08:31:57;2.33;;;1.90;;
4311;SDS011;2169;49.086;9.284;2023-06-19T08:34:26;1.27;;;1.17;;
4311;SDS011;2169;49.086;9.284;2023-06-19T08:36:53;2.03;;;1.90;;
4311;SDS011;2169;49.086;9.284;2023-06-19T08:39:19;2.63;;;2.10;;
4311;SDS011;2169;49.086;9.284;2023-06-19T08:41:47;3.10;;;1.30;;
4311;SDS011;2169;49.086;9.284;2023-06-19T08:44:14;2.03;;;1.70;;
4311;SDS011;2169;49.086;9.284;2023-06-19T08:46:41;2.33;;;2.17;;
4311;SDS011;2169;49.086;9.284;2023-06-19T08:49:08;2.30;;;1.90;;
4311;SDS011;2169;49.086;9.284;2023-06-19T08:51:37;7.90;;;1.97;;
4311;SDS011;2169;49.086;9.284;2023-06-19T08:54:04;6.93;;;1.90;;
4311;SDS011;2169;49.086;9.284;2023-06-19T08:56:32;3.13;;;2.30;;
4311;SDS011;2169;49.086;9.284;2023-06-19T08:59:09;8.10;;;2.00;;
4311;SDS011;2169;49.086;9.284;2023-06-19T09:01:37;1.37;;;1.27;;
4311;SDS011;2169;49.086;9.284;2023-06-19T09:04:08;2.70;;;2.37;;
4311;SDS011;2169;49.086;9.284;2023-06-19T09:06:37;4.50;;;2.50;;
4311;SDS011;2169;49.086;9.284;2023-06-19T09:09:13;5.90;;;1.33;;
4311;SDS011;2169;49.086;9.284;2023-06-19T09:11:40;1.80;;;1.70;;
4311;SDS011;2169;49.086;9.284;2023-06-19T09:14:08;1.63;;;1.53;;
4311;SDS011;2169;49.086;9.284;2023-06-19T09:16:36;1.73;;;1.63;;
4311;SDS011;2169;49.086;9.284;2023-06-19T09:19:04;1.30;;;1.10;;
4311;SDS011;2169;49.086;9.284;2023-06-19T09:21:31;1.70;;;1.47;;
4311;SDS011;2169;49.086;9.284;2023-06-19T09:24:03;2.60;;;2.40;;
4311;SDS011;2169;49.086;9.284;2023-06-19T09:26:31;2.07;;;1.30;;
4311;SDS011;2169;49.086;9.284;2023-06-19T09:28:57;1.37;;;1.27;;
4311;SDS011;2169;49.086;9.284;2023-06-19T09:31:31;2.90;;;1.60;;
4311;SDS011;2169;49.086;9.284;2023-06-19T09:33:59;1.33;;;1.23;;
4311;SDS011;2169;49.086;9.284;2023-06-19T09:36:25;1.10;;;1.10;;
4311;SDS011;2169;49.086;9.284;2023-06-19T09:38:52;1.20;;;1.20;;
4311;SDS011;2169;49.086;9.284;2023-06-19T09:41:22;2.80;;;1.70;;
4311;SDS011;2169;49.086;9.284;2023-06-19T09:43:52;1.50;;;1.37;;
4311;SDS011;2169;49.086;9.284;2023-06-19T09:46:22;6.93;;;1.70;;
4311;SDS011;2169;49.086;9.284;2023-06-19T09:48:53;1.83;;;1.73;;
4311;SDS011;2169;49.086;9.284;2023-06-19T09:51:25;4.20;;;1.87;;
4311;SDS011;2169;49.086;9.284;2023-06-19T09:53:56;1.30;;;1.20;;
4311;SDS011;2169;49.086;9.284;2023-06-19T09:56:25;2.17;;;1.83;;
4311;SDS011;2169;49.086;9.284;2023-06-19T09:58:54;1.87;;;1.77;;
4311;SDS011;2169;49.086;9.284;2023-06-19T10:01:24;1.33;;;1.23;;
4311;SDS011;2169;49.086;9.284;2023-06-19T10:04:01;1.60;;;1.50;;
4311;SDS011;2169;49.086;9.284;2023-06-19T10:06:29;1.20;;;1.20;;
4311;SDS011;2169;49.086;9.284;2023-06-19T10:09:05;7.53;;;2.00;;
4311;SDS011;2169;49.086;9.284;2023-06-19T10:11:45;1.60;;;1.50;;
4311;SDS011;2169;49.086;9.284;2023-06-19T10:14:13;1.50;;;1.40;;
4311;SDS011;2169;49.086;9.284;2023-06-19T10:16:43;1.47;;;1.37;;
4311;SDS011;2169;49.086;9.284;2023-06-19T10:19:16;2.37;;;2.27;;
4311;SDS011;2169;49.086;9.284;2023-06-19T10:21:44;2.13;;;1.73;;
4311;SDS011;2169;49.086;9.284;2023-06-19T10:24:14;1.47;;;1.20;;
4311;SDS011;2169;49.086;9.284;2023-06-19T10:26:55;1.27;;;1.17;;
4311;SDS011;2169;49.086;9.284;2023-06-19T10:29:22;1.50;;;1.40;;
4311;SDS011;2169;49.086;9.284;2023-06-19T10:31:49;4.13;;;2.50;;
4311;SDS011;2169;49.086;9.284;2023-06-19T10:34:16;1.40;;;1.30;;
4311;SDS011;2169;49.086;9.284;2023-06-19T10:36:43;2.30;;;1.43;;
4311;SDS011;2169;49.086;9.284;2023-06-19T10:39:10;2.13;;;2.03;;
4311;SDS011;2169;49.086;9.284;2023-06-19T10:41:39;19.23;;;3.30;;
4311;SDS011;2169;49.086;9.284;2023-06-19T10:44:07;2.30;;;2.20;;
4311;SDS011;2169;49.086;9.284;2023-06-19T10:46:37;2.30;;;2.07;;
4311;SDS011;2169;49.086;9.284;2023-06-19T10:49:05;1.60;;;1.47;;
4311;SDS011;2169;49.086;9.284;2023-06-19T10:51:35;2.10;;;2.00;;
4311;SDS011;2169;49.086;9.284;2023-06-19T10:54:02;1.87;;;1.77;;
4311;SDS011;2169;49.086;9.284;2023-06-19T10:56:30;2.80;;;2.60;;
4311;SDS011;2169;49.086;9.284;2023-06-19T10:58:57;1.70;;;1.60;;
4311;SDS011;2169;49.086;9.284;2023-06-19T11:01:32;1.73;;;1.53;;
4311;SDS011;2169;49.086;9.284;2023-06-19T11:04:02;2.10;;;2.00;;
4311;SDS011;2169;49.086;9.284;2023-06-19T11:06:30;1.93;;;1.83;;
4311;SDS011;2169;49.086;9.284;2023-06-19T11:08:57;2.00;;;1.53;;
4311;SDS011;2169;49.086;9.284;2023-06-19T11:11:34;2.77;;;2.30;;
4311;SDS011;2169;49.086;9.284;2023-06-19T11:14:01;1.70;;;1.60;;
4311;SDS011;2169;49.086;9.284;2023-06-19T11:16:28;2.27;;;2.17;;
4311;SDS011;2169;49.086;9.284;2023-06-19T11:18:56;3.00;;;2.80;;
4311;SDS011;2169;49.086;9.284;2023-06-19T11:21:28;3.67;;;2.13;;
4311;SDS011;2169;49.086;9.284;2023-06-19T11:23:58;2.70;;;2.23;;
4311;SDS011;2169;49.086;9.284;2023-06-19T11:26:25;2.90;;;2.10;;
4311;SDS011;2169;49.086;9.284;2023-06-19T11:28:52;1.50;;;1.40;;
4311;SDS011;2169;49.086;9.284;2023-06-19T11:31:25;6.40;;;3.30;;
4311;SDS011;2169;49.086;9.284;2023-06-19T11:33:58;1.67;;;1.50;;
4311;SDS011;2169;49.086;9.284;2023-06-19T11:36:27;3.07;;;2.87;;
4311;SDS011;2169;49.086;9.284;2023-06-19T11:38:54;2.60;;;1.80;;
4311;SDS011;2169;49.086;9.284;2023-06-19T11:41:27;3.03;;;2.00;;
4311;SDS011;2169;49.086;9.284;2023-06-19T11:43:58;2.57;;;2.37;;
4311;SDS011;2169;49.086;9.284;2023-06-19T11:46:28;2.40;;;2.20;;
4311;SDS011;2169;49.086;9.284;2023-06-19T11:48:55;2.00;;;1.90;;
4311;SDS011;2169;49.086;9.284;2023-06-19T11:51:34;2.50;;;2.30;;
4311;SDS011;2169;49.086;9.284;2023-06-19T11:54:01;2.60;;;2.43;;
4311;SDS011;2169;49.086;9.284;2023-06-19T11:56:28;2.90;;;2.70;;
4311;SDS011;2169;49.086;9.284;2023-06-19T11:58:55;3.13;;;2.63;;
4311;SDS011;2169;49.086;9.284;2023-06-19T12:01:21;5.90;;;2.10;;
4311;SDS011;2169;49.086;9.284;2023-06-19T12:03:48;2.07;;;1.87;;
4311;SDS011;2169;49.086;9.284;2023-06-19T12:06:17;2.07;;;1.97;;
4311;SDS011;2169;49.086;9.284;2023-06-19T12:08:44;2.50;;;2.40;;
4311;SDS011;2169;49.086;9.284;2023-06-19T12:11:11;4.30;;;1.30;;
4311;SDS011;2169;49.086;9.284;2023-06-19T12:13:38;3.17;;;1.90;;
4311;SDS011;2169;49.086;9.284;2023-06-19T12:16:06;8.63;;;2.20;;
4311;SDS011;2169;49.086;9.284;2023-06-19T12:18:32;2.40;;;1.53;;
4311;SDS011;2169;49.086;9.284;2023-06-19T12:20:59;4.53;;;2.10;;
4311;SDS011;2169;49.086;9.284;2023-06-19T12:23:28;1.47;;;1.37;;
4311;SDS011;2169;49.086;9.284;2023-06-19T12:25:54;2.13;;;1.97;;
4311;SDS011;2169;49.086;9.284;2023-06-19T12:28:22;1.77;;;1.67;;
4311;SDS011;2169;49.086;9.284;2023-06-19T12:30:49;2.17;;;1.97;;
4311;SDS011;2169;49.086;9.284;2023-06-19T12:33:16;1.87;;;1.77;;
4311;SDS011;2169;49.086;9.284;2023-06-19T12:35:44;1.90;;;1.60;;
4311;SDS011;2169;49.086;9.284;2023-06-19T12:38:11;3.90;;;1.70;;
4311;SDS011;2169;49.086;9.284;2023-06-19T12:40:40;8.80;;;2.17;;
4311;SDS011;2169;49.086;9.284;2023-06-19T12:43:07;2.07;;;1.87;;
4311;SDS011;2169;49.086;9.284;2023-06-19T12:45:33;4.00;;;2.73;;
4311;SDS011;2169;49.086;9.284;2023-06-19T12:48:00;3.00;;;1.47;;
4311;SDS011;2169;49.086;9.284;2023-06-19T12:50:27;1.77;;;1.67;;
4311;SDS011;2169;49.086;9.284;2023-06-19T12:52:53;1.93;;;1.80;;
4311;SDS011;2169;49.086;9.284;2023-06-19T12:55:20;1.60;;;1.60;;
4311;SDS011;2169;49.086;9.284;2023-06-19T12:57:48;2.70;;;2.50;;
4311;SDS011;2169;49.086;9.284;2023-06-19T13:00:15;1.70;;;1.60;;
4311;SDS011;2169;49.086;9.284;2023-06-19T13:02:42;1.60;;;1.50;;
4311;SDS011;2169;49.086;9.284;2023-06-19T13:05:11;2.20;;;1.57;;
4311;SDS011;2169;49.086;9.284;2023-06-19T13:07:38;2.63;;;2.00;;
4311;SDS011;2169;49.086;9.284;2023-06-19T13:10:05;4.40;;;1.70;;
4311;SDS011;2169;49.086;9.284;2023-06-19T13:12:32;3.60;;;1.33;;
4311;SDS011;2169;49.086;9.284;2023-06-19T13:15:00;1.77;;;1.67;;
4311;SDS011;2169;49.086;9.284;2023-06-19T13:17:27;1.67;;;1.57;;
4311;SDS011;2169;49.086;9.284;2023-06-19T13:19:54;2.00;;;1.87;;
4311;SDS011;2169;49.086;9.284;2023-06-19T13:22:21;4.20;;;1.80;;
4311;SDS011;2169;49.086;9.284;2023-06-19T13:24:47;2.20;;;2.10;;
4311;SDS011;2169;49.086;9.284;2023-06-19T13:27:14;1.57;;;1.47;;
4311;SDS011;2169;49.086;9.284;2023-06-19T13:29:41;1.70;;;1.60;;
4311;SDS011;2169;49.086;9.284;2023-06-19T13:32:09;1.63;;;1.53;;
4311;SDS011;2169;49.086;9.284;2023-06-19T13:34:36;2.10;;;1.83;;
4311;SDS011;2169;49.086;9.284;2023-06-19T13:37:02;1.47;;;1.37;;
4311;SDS011;2169;49.086;9.284;2023-06-19T13:39:29;2.57;;;2.40;;
4311;SDS011;2169;49.086;9.284;2023-06-19T13:41:56;1.90;;;1.73;;
4311;SDS011;2169;49.086;9.284;2023-06-19T13:44:26;1.80;;;1.60;;
4311;SDS011;2169;49.086;9.284;2023-06-19T13:46:53;1.30;;;1.20;;
4311;SDS011;2169;49.086;9.284;2023-06-19T13:49:21;1.90;;;1.80;;
4311;SDS011;2169;49.086;9.284;2023-06-19T13:51:47;2.20;;;2.10;;
4311;SDS011;2169;49.086;9.284;2023-06-19T13:54:15;5.80;;;1.47;;
4311;SDS011;2169;49.086;9.284;2023-06-19T13:56:42;1.73;;;1.63;;
4311;SDS011;2169;49.086;9.284;2023-06-19T13:59:09;22.53;;;2.20;;
4311;SDS011;2169;49.086;9.284;2023-06-19T14:01:36;1.97;;;1.87;;
4311;SDS011;2169;49.086;9.284;2023-06-19T14:04:02;5.20;;;2.30;;
4311;SDS011;2169;49.086;9.284;2023-06-19T14:06:31;2.03;;;1.93;;
4311;SDS011;2169;49.086;9.284;2023-06-19T14:08:57;1.70;;;1.63;;
4311;SDS011;2169;49.086;9.284;2023-06-19T14:13:52;2.07;;;1.97;;
4311;SDS011;2169;49.086;9.284;2023-06-19T14:16:19;2.57;;;2.37;;
4311;SDS011;2169;49.086;9.284;2023-06-19T14:18:45;1.60;;;1.50;;
4311;SDS011;2169;49.086;9.284;2023-06-19T14:21:12;2.90;;;1.50;;
4311;SDS011;2169;49.086;9.284;2023-06-19T14:23:40;1.83;;;1.73;;
4311;SDS011;2169;49.086;9.284;2023-06-19T14:26:09;4.00;;;2.07;;
4311;SDS011;2169;49.086;9.284;2023-06-19T14:28:36;5.60;;;1.63;;
4311;SDS011;2169;49.086;9.284;2023-06-19T14:31:04;4.83;;;2.50;;
4311;SDS011;2169;49.086;9.284;2023-06-19T14:33:31;2.00;;;1.70;;
4311;SDS011;2169;49.086;9.284;2023-06-19T14:35:58;2.20;;;2.10;;
4311;SDS011;2169;49.086;9.284;2023-06-19T14:38:25;3.60;;;2.40;;
4311;SDS011;2169;49.086;9.284;2023-06-19T14:40:57;3.80;;;2.30;;
4311;SDS011;2169;49.086;9.284;2023-06-19T14:43:25;1.83;;;1.73;;
4311;SDS011;2169;49.086;9.284;2023-06-19T14:45:52;1.30;;;1.30;;
4311;SDS011;2169;49.086;9.284;2023-06-19T14:48:19;3.80;;;1.97;;
4311;SDS011;2169;49.086;9.284;2023-06-19T14:50:45;2.00;;;1.80;;
4311;SDS011;2169;49.086;9.284;2023-06-19T14:53:12;1.73;;;1.63;;
4311;SDS011;2169;49.086;9.284;2023-06-19T14:55:39;1.73;;;1.53;;
4311;SDS011;2169;49.086;9.284;2023-06-19T14:58:12;3.90;;;1.73;;
4311;SDS011;2169;49.086;9.284;2023-06-19T15:00:39;1.80;;;1.70;;
4311;SDS011;2169;49.086;9.284;2023-06-19T15:03:06;2.93;;;1.73;;
4311;SDS011;2169;49.086;9.284;2023-06-19T15:05:32;3.70;;;2.50;;
4311;SDS011;2169;49.086;9.284;2023-06-19T15:07:59;2.17;;;2.07;;
4311;SDS011;2169;49.086;9.284;2023-06-19T15:10:28;2.87;;;1.57;;
4311;SDS011;2169;49.086;9.284;2023-06-19T15:12:55;1.77;;;1.67;;
4311;SDS011;2169;49.086;9.284;2023-06-19T15:15:23;2.33;;;2.13;;
4311;SDS011;2169;49.086;9.284;2023-06-19T15:17:49;7.33;;;2.63;;
4311;SDS011;2169;49.086;9.284;2023-06-19T15:20:16;2.90;;;2.00;;
4311;SDS011;2169;49.086;9.284;2023-06-19T15:22:45;2.20;;;2.00;;